Aktualne dane pomiarowe

Uwaga, wersja testowa! Automatyczne pobieranie danych za pomocą narzędzi lub skryptów to umożliwiających jest zabronione.

Dane meteo z obszaru Polski uzyskane na podstawie depesz SYNOP pobieranych co godzinę z NWS. Najedź myszką na symbol przedstawiony w tabeli, aby uzyskać informacje co do jego znaczenia. Prosimy pamiętać, że to testowa wersja strony, która jeszcze nie jest ukończona. Stworzono również jest krótki FAQ dotyczący korzystania z tej podstrony Anomalie temperatury w chwili obecnej odniesione są do okresu referencyjnego 1951-2016. Okres ten będzie później zmieniony na 1981-2010. Kliknij ikonę aby pobrać plik CSV. Kliknij ikonę aby wygenerować mapę synoptyczną dla danego terminu.

Wybierz Datę:    

        

Tomaszów Mazowiecki (12466)

Dane terminowe dla wybranej stacji. Kliknij datę, aby otrzymać dane z tego terminu dla wszystkich stacji.

TemperaturaZachmurzenieWiatrCiśnienieOpadyPogoda
 Data t td wb tx tn tg rh  Nt Nl Cl Cm Ch ws wd g1 g2 wx mslp ppp ch 24h 12h t ww ww w1 w2  
2019-07-20 23:00:00 18.7 13.4 15.2--- 71---2wx---1016.3 994.8----------
2019-07-20 22:00:00 19.6 13.3 15.5--- 67---2wx---1016.4 995.0----------
2019-07-20 21:00:00 20.8 13.3 16.0--- 62---2wx---1016.2 994.9----------
2019-07-20 20:00:00 21.8 13.2 16.4--- 58---2wx---1016.1 994.8----------
2019-07-20 19:00:00 22.5 13.0 16.6--- 55---2wx---1015.7 994.5----------
2019-07-20 18:00:00 24.4 13.3 17.5--- 50---2wx---1015.1 994.1----------
2019-07-20 17:00:00 27.5 12.4 18.3--- 39---2wx---1015.0 994.2----------
2019-07-20 16:00:00 27.7 12.5 18.4--- 39---2wx---1015.1 994.3----------
2019-07-20 15:00:00 27.1 12.8 18.3--- 41---3wx---1015.2 994.3----------
2019-07-20 14:00:00 26.7 12.7 18.1--- 42---3wx---1015.4 994.5----------
2019-07-20 13:00:00 27.4 13.0 18.5--- 41---3wx---1015.5 994.7----------
2019-07-20 12:00:00 23.9 13.8 17.5--- 53---3wx---1016.2 995.1----------
2019-07-20 11:00:00 27.0 12.3 18.0--- 40---3wx---1015.9 995.0----------
2019-07-20 10:00:00 26.2 11.9 17.5--- 41---4wx---1015.9 995.0----------
2019-07-20 09:00:00 25.1 12.7 17.5--- 46---3wx---1016.3 995.3----------
2019-07-20 08:00:00 23.7 13.3 17.2--- 52---2wx---1016.4 995.3----------
2019-07-20 07:00:00 22.1 15.5 17.7--- 66---1wx---1016.3 995.1----------
2019-07-20 06:00:00 19.2 16.3 17.2--- 83---1wx---1016.6 995.1----------
2019-07-20 05:00:00 18.2 16.0 16.6--- 87---1wx---1016.4 994.9----------
2019-07-20 04:00:00 17.1 15.8 16.2--- 92---1wx---1016.3 994.7----------
2019-07-20 03:00:00 16.8 15.5 15.9--- 92---1wx---1016.0 994.4----------
2019-07-20 02:00:00 16.9 15.4 15.8--- 91---2wx---1015.8 994.2----------
2019-07-20 01:00:00 17.4 15.4 16.0--- 88---1wx---1015.7 994.1----------
2019-07-20 00:00:00 17.7 15.2 15.9--- 85---2wx---1015.6 994.0----------
2019-07-19 23:00:00 17.9 15.0 15.9--- 83---2wx---1015.6 994.1----------
2019-07-19 22:00:00 17.7 14.8 15.7--- 83---1wx---1015.8 994.2----------
2019-07-19 21:00:00 17.8 14.7 15.7--- 82---1wx---1015.5 994.0----------
2019-07-19 20:00:00 20.1 12.9 15.5--- 63---2wx---1015.1 993.7----------
2019-07-19 19:00:00 20.7 12.4 15.5--- 59---2wx---1014.6 993.3----------
2019-07-19 18:00:00 21.1 13.3 16.1--- 61---1wx---1014.4 993.1----------
2019-07-19 17:00:00 22.4 12.1 16.1--- 52---1wx---1014.2 993.0----------
2019-07-19 16:00:00 21.6 14.5 17.0--- 64---1wx---1014.1 992.9----------
2019-07-19 15:00:00 21.4 11.7 15.5--- 5410.0wxwxwxwx5wx---1014.5 993.2 1.1---wx---
2019-07-19 14:00:00 27.5 7.4 16.1--- 2810.0wxwxwxwxwx1wx---1013.0 992.2 -0.3---------
2019-07-19 13:00:00 27.9 6.7 16.0--- 2610.0wxwxwxwxwx2wx---1012.7 992.0 -0.8---------
2019-07-19 12:00:00 27.6 6.3 15.7--- 2610.0wxwxwxwxwx2wx---1012.9 992.1 -0.8---------
2019-07-19 11:00:00 27.4 6.2 15.6--- 2610.0wxwxwxwxwx2wx---1013.2 992.4 -0.6---------
2019-07-19 10:00:00 27.0 6.5 15.5--- 2710.0wxwxwxwx2wx---1013.6 992.8 -0.4---------
2019-07-19 09:00:00 25.3 6.5 14.8--- 3010.0wxwxwxwx2wx---1013.9 992.9 -0.1---------
2019-07-19 08:00:00 25.7 6.4 15.0--- 2910.0wxwxwxwx1----1014.0 993.1 0.2---------
2019-07-19 07:00:00 22.1 9.3 14.6--- 4410.0wx-wx1----1014.4 993.2 0.4---------
2019-07-19 06:00:00 18.4 9.2 13.0--- 5510.0wx-wx1wx---1014.5 993.0 0.2---------
2019-07-19 05:00:00 14.5 8.5 10.9--- 6710.0wx-wx1----1014.7 992.9 0.1---------
2019-07-19 04:00:00 10.3 8.1 8.8--- 8610.0wx-wx1wx---1014.9 992.8 0.0---------
2019-07-19 03:00:00 8.5 6.6 7.2--- 8810.0wx-wx0----1015.1 992.8 0.1---------
2019-07-19 02:00:00 9.7 7.3 8.1--- 85---0wx---1015.0 992.8----------
2019-07-19 01:00:00 10.7 7.8 8.8--- 82---0wx---1014.9 992.8----------
2019-07-19 00:00:00 10.6 7.5 8.6--- 81---0wx---1014.8 992.7----------
1.7 ms

 

Print Friendly, PDF & Email